createdAt,value
2023-01-29T00:02:46.617Z,2.60
2023-01-29T00:05:51.196Z,2.50
2023-01-29T00:08:54.525Z,2.50
2023-01-29T00:11:57.718Z,2.50
2023-01-29T00:15:00.899Z,2.50
2023-01-29T00:18:04.162Z,2.60
2023-01-29T00:21:11.708Z,2.60
2023-01-29T00:24:14.914Z,2.60
2023-01-29T00:27:18.193Z,2.50
2023-01-29T00:30:21.473Z,2.60
2023-01-29T00:33:24.676Z,2.60
2023-01-29T00:36:29.540Z,2.60
2023-01-29T00:39:47.428Z,2.60
2023-01-29T00:43:08.793Z,2.60
2023-01-29T00:46:12.422Z,2.60
2023-01-29T00:49:15.633Z,2.60
2023-01-29T00:52:25.771Z,2.60
2023-01-29T00:55:29.038Z,2.60
2023-01-29T00:58:34.565Z,2.70
2023-01-29T01:01:55.046Z,2.70
2023-01-29T01:04:58.542Z,2.70
2023-01-29T01:08:03.136Z,2.80
2023-01-29T01:11:06.570Z,2.80
2023-01-29T01:14:10.120Z,2.70
2023-01-29T01:17:13.267Z,2.60
2023-01-29T01:20:17.361Z,2.70
2023-01-29T01:23:22.157Z,2.70
2023-01-29T01:26:25.431Z,2.70
2023-01-29T01:29:28.753Z,2.60
2023-01-29T01:32:31.842Z,2.60
2023-01-29T01:35:35.105Z,2.70
2023-01-29T01:38:44.683Z,2.60
2023-01-29T01:41:48.052Z,2.60
2023-01-29T01:44:57.187Z,2.60
2023-01-29T01:48:05.219Z,2.60
2023-01-29T01:51:08.369Z,2.70
2023-01-29T01:54:16.372Z,2.80
2023-01-29T01:57:25.960Z,2.80
2023-01-29T02:00:29.326Z,2.80
2023-01-29T02:03:51.943Z,2.70
2023-01-29T02:07:14.485Z,2.80
2023-01-29T02:10:20.701Z,2.80
2023-01-29T02:13:24.782Z,2.80
2023-01-29T02:16:28.020Z,2.80
2023-01-29T02:19:48.198Z,2.70
2023-01-29T02:23:17.105Z,2.70
2023-01-29T02:26:33.843Z,2.70
2023-01-29T02:29:48.890Z,2.70
2023-01-29T02:33:07.596Z,2.80
2023-01-29T02:36:20.606Z,2.60
2023-01-29T02:39:39.649Z,2.70
2023-01-29T02:42:50.154Z,2.70
2023-01-29T02:46:07.311Z,2.80
2023-01-29T02:49:18.284Z,2.80
2023-01-29T02:52:24.591Z,2.80
2023-01-29T02:55:34.484Z,2.70
2023-01-29T02:58:43.041Z,2.80
2023-01-29T03:01:49.874Z,2.70
2023-01-29T03:05:01.222Z,2.80
2023-01-29T03:08:10.764Z,2.70
2023-01-29T03:11:15.859Z,2.70
2023-01-29T03:14:25.560Z,2.70
2023-01-29T03:17:38.412Z,2.70
2023-01-29T03:20:48.145Z,2.70
2023-01-29T03:24:08.817Z,2.70
2023-01-29T03:27:33.215Z,2.80
2023-01-29T03:30:58.563Z,2.70
2023-01-29T03:34:09.003Z,2.70
2023-01-29T03:37:18.921Z,2.80
2023-01-29T03:40:22.203Z,2.80
2023-01-29T03:43:35.936Z,2.80
2023-01-29T03:46:45.867Z,2.80
2023-01-29T03:49:58.989Z,2.80
2023-01-29T03:53:09.488Z,2.90
2023-01-29T03:56:23.787Z,2.80
2023-01-29T03:59:35.350Z,2.80
2023-01-29T04:02:44.719Z,2.80
2023-01-29T04:05:58.461Z,2.80
2023-01-29T04:09:05.504Z,2.70
2023-01-29T04:12:10.961Z,2.70
2023-01-29T04:15:16.766Z,2.60
2023-01-29T04:18:19.959Z,2.60
2023-01-29T04:21:26.167Z,2.60
2023-01-29T04:24:29.515Z,2.50
2023-01-29T04:27:42.948Z,2.50
2023-01-29T04:30:54.054Z,2.50
2023-01-29T04:34:07.329Z,2.50
2023-01-29T04:37:17.205Z,2.50
2023-01-29T04:40:26.681Z,2.50
2023-01-29T04:43:36.660Z,2.50
2023-01-29T04:46:49.611Z,2.60
2023-01-29T04:50:01.231Z,2.60
2023-01-29T04:53:12.073Z,2.60
2023-01-29T04:56:22.197Z,2.60
2023-01-29T04:59:30.380Z,2.60
2023-01-29T05:02:38.387Z,2.70
2023-01-29T05:05:43.732Z,2.70
2023-01-29T05:08:50.263Z,2.60
2023-01-29T05:11:54.259Z,2.60
2023-01-29T05:15:02.172Z,2.60
2023-01-29T05:18:08.907Z,2.60
2023-01-29T05:21:12.102Z,2.60
2023-01-29T05:24:19.449Z,2.60
2023-01-29T05:27:45.395Z,2.70
2023-01-29T05:30:50.505Z,2.60
2023-01-29T05:33:53.672Z,2.60
2023-01-29T05:36:57.005Z,2.60
2023-01-29T05:40:01.560Z,2.50
2023-01-29T05:43:05.409Z,2.50
2023-01-29T05:46:09.027Z,2.50
2023-01-29T05:49:12.201Z,2.50
2023-01-29T05:52:15.309Z,2.30
2023-01-29T05:55:19.993Z,2.20
2023-01-29T05:58:23.168Z,2.10
2023-01-29T06:01:27.718Z,2.10
2023-01-29T06:04:30.876Z,2.10
2023-01-29T06:07:34.713Z,2.00
2023-01-29T06:10:39.250Z,2.00
2023-01-29T06:13:42.407Z,2.00
2023-01-29T06:16:45.534Z,2.00
2023-01-29T06:19:48.680Z,1.90
2023-01-29T06:22:51.850Z,2.00
2023-01-29T06:26:00.923Z,1.90
2023-01-29T06:29:04.077Z,2.00
2023-01-29T06:32:07.287Z,2.00
2023-01-29T06:35:11.220Z,2.00
2023-01-29T06:38:14.398Z,2.10
2023-01-29T06:41:22.818Z,2.20
2023-01-29T06:44:26.023Z,2.20
2023-01-29T06:47:29.604Z,2.20
2023-01-29T06:50:32.767Z,2.30
2023-01-29T06:53:37.263Z,2.30
2023-01-29T06:56:41.759Z,2.40
2023-01-29T06:59:44.918Z,2.40
2023-01-29T07:02:50.482Z,2.40
2023-01-29T07:05:54.394Z,2.50
2023-01-29T07:08:57.835Z,2.50
2023-01-29T07:12:02.381Z,2.60
2023-01-29T07:15:06.320Z,2.60
2023-01-29T07:18:13.012Z,2.70
2023-01-29T07:21:16.307Z,2.80
2023-01-29T07:24:20.010Z,2.90
2023-01-29T07:27:24.548Z,2.90
2023-01-29T07:30:27.714Z,3.10
2023-01-29T07:33:30.927Z,3.10
2023-01-29T07:36:34.131Z,3.20
2023-01-29T07:39:37.282Z,3.20
2023-01-29T07:42:44.088Z,3.10
2023-01-29T07:45:47.305Z,3.10
2023-01-29T07:48:50.451Z,3.20
2023-01-29T07:51:53.684Z,3.20
2023-01-29T07:54:56.948Z,3.20
2023-01-29T07:58:02.742Z,3.30
2023-01-29T08:01:08.555Z,3.30
2023-01-29T08:04:11.716Z,3.30
2023-01-29T08:07:15.067Z,3.30
2023-01-29T08:10:19.034Z,3.20
2023-01-29T08:13:23.865Z,3.20
2023-01-29T08:16:27.009Z,3.10
2023-01-29T08:19:30.197Z,3.20
2023-01-29T08:22:33.375Z,3.20
2023-01-29T08:25:37.713Z,3.30
2023-01-29T08:28:42.325Z,3.30
2023-01-29T08:31:45.471Z,3.50
2023-01-29T08:34:48.764Z,3.70
2023-01-29T08:37:55.461Z,3.80
2023-01-29T08:40:58.646Z,3.70
2023-01-29T08:44:04.493Z,3.90
2023-01-29T08:47:07.955Z,3.90
2023-01-29T08:50:12.360Z,4.10
2023-01-29T08:53:15.515Z,4.30
2023-01-29T08:56:18.649Z,4.50
2023-01-29T08:59:23.442Z,4.70
2023-01-29T09:02:26.649Z,4.90
2023-01-29T09:05:29.923Z,5.00
2023-01-29T09:08:33.052Z,5.20
2023-01-29T09:11:36.202Z,5.40
2023-01-29T09:14:40.697Z,5.80
2023-01-29T09:17:44.208Z,6.20
2023-01-29T09:20:47.320Z,6.60
2023-01-29T09:23:50.422Z,7.00
2023-01-29T09:26:53.543Z,7.30
2023-01-29T09:29:58.061Z,7.50
2023-01-29T09:33:01.891Z,7.60
2023-01-29T09:36:05.808Z,7.60
2023-01-29T09:39:09.066Z,7.60
2023-01-29T09:42:19.836Z,7.40
2023-01-29T09:45:27.742Z,7.20
2023-01-29T09:48:35.477Z,7.10
2023-01-29T09:51:43.010Z,7.20
2023-01-29T09:54:55.935Z,7.10
2023-01-29T09:58:02.551Z,7.00
2023-01-29T10:01:15.213Z,7.00
2023-01-29T10:04:34.765Z,6.90
2023-01-29T10:07:59.254Z,6.70
2023-01-29T10:11:10.275Z,6.70
2023-01-29T10:14:21.054Z,6.50
2023-01-29T10:17:46.209Z,6.60
2023-01-29T10:20:59.629Z,7.60
2023-01-29T10:24:13.516Z,7.70
2023-01-29T10:27:18.594Z,7.80
2023-01-29T10:30:32.061Z,8.10
2023-01-29T10:34:03.360Z,10.30
2023-01-29T10:37:16.771Z,13.20
2023-01-29T10:40:23.283Z,13.30
2023-01-29T10:43:35.230Z,12.40
2023-01-29T10:46:57.452Z,11.20
2023-01-29T10:50:26.723Z,10.00
2023-01-29T10:53:43.057Z,9.10
2023-01-29T10:56:55.850Z,8.10
2023-01-29T11:00:10.151Z,7.60
2023-01-29T11:03:26.916Z,7.40
2023-01-29T11:06:34.593Z,7.30
2023-01-29T11:09:43.742Z,7.40
2023-01-29T11:12:47.570Z,7.50
2023-01-29T11:15:54.062Z,7.40
2023-01-29T11:18:59.530Z,7.20
2023-01-29T11:22:04.536Z,7.10
2023-01-29T11:25:17.681Z,7.00
2023-01-29T11:28:37.275Z,6.90
2023-01-29T11:31:41.547Z,7.20
2023-01-29T11:35:01.888Z,7.40
2023-01-29T11:38:19.560Z,6.90
2023-01-29T11:41:25.442Z,6.10
2023-01-29T11:44:32.898Z,5.90
2023-01-29T11:47:36.633Z,5.80
2023-01-29T11:50:39.994Z,5.70
2023-01-29T11:53:47.249Z,5.50
2023-01-29T11:56:51.876Z,5.30
2023-01-29T11:59:56.921Z,4.90
2023-01-29T12:03:08.168Z,4.80
2023-01-29T12:06:19.848Z,5.00
2023-01-29T12:09:27.534Z,4.90
2023-01-29T12:12:34.235Z,5.00
2023-01-29T12:15:38.417Z,5.00
2023-01-29T12:18:44.650Z,4.90
2023-01-29T12:21:52.116Z,5.00
2023-01-29T12:25:02.551Z,4.70
2023-01-29T12:28:11.636Z,4.70
2023-01-29T12:31:27.100Z,4.60
2023-01-29T12:34:42.131Z,4.50
2023-01-29T12:37:53.684Z,4.60
2023-01-29T12:41:01.133Z,4.90
2023-01-29T12:44:13.648Z,5.00
2023-01-29T12:47:21.862Z,4.70
2023-01-29T12:50:29.956Z,4.80
2023-01-29T12:53:38.354Z,4.80
2023-01-29T12:56:47.659Z,4.70
2023-01-29T12:59:56.418Z,4.70
2023-01-29T13:03:05.588Z,4.60
2023-01-29T13:06:11.686Z,4.60
2023-01-29T13:09:18.659Z,4.50
2023-01-29T13:12:25.422Z,4.40
2023-01-29T13:15:35.670Z,4.40
2023-01-29T13:18:44.705Z,4.50
2023-01-29T13:21:49.077Z,4.50
2023-01-29T13:25:04.280Z,4.40
2023-01-29T13:28:18.569Z,4.20
2023-01-29T13:31:32.161Z,4.00
2023-01-29T13:34:39.145Z,3.80
2023-01-29T13:37:48.302Z,3.90
2023-01-29T13:40:52.325Z,3.90
2023-01-29T13:43:57.804Z,3.90
2023-01-29T13:47:03.315Z,3.90
2023-01-29T13:50:09.904Z,4.00
2023-01-29T13:53:24.137Z,4.10
2023-01-29T13:56:48.991Z,4.20
2023-01-29T13:59:56.438Z,4.10
2023-01-29T14:04:04.137Z,4.20
2023-01-29T14:07:51.643Z,4.20
2023-01-29T14:11:37.670Z,4.20
2023-01-29T14:15:04.600Z,4.00
2023-01-29T14:18:26.351Z,3.90
2023-01-29T14:21:33.245Z,3.80
2023-01-29T14:24:38.794Z,3.80
2023-01-29T14:27:47.849Z,3.70
2023-01-29T14:30:52.585Z,3.70
2023-01-29T14:34:03.519Z,3.60
2023-01-29T14:37:23.081Z,3.60
2023-01-29T14:40:31.169Z,3.70
2023-01-29T14:43:35.129Z,3.60
2023-01-29T14:46:46.208Z,3.50
2023-01-29T14:49:55.454Z,3.50
2023-01-29T14:53:05.023Z,3.50
2023-01-29T14:56:20.062Z,3.50
2023-01-29T14:59:29.248Z,3.40
2023-01-29T15:02:40.251Z,3.40
2023-01-29T15:05:44.548Z,3.30
2023-01-29T15:08:53.931Z,3.30
2023-01-29T15:12:07.670Z,3.20
2023-01-29T15:15:19.428Z,3.30
2023-01-29T15:18:32.565Z,3.40
2023-01-29T15:21:35.737Z,3.30
2023-01-29T15:24:40.665Z,3.30
2023-01-29T15:27:48.748Z,3.40
2023-01-29T15:30:55.942Z,3.40
2023-01-29T15:34:03.090Z,3.50
2023-01-29T15:37:07.844Z,3.50
2023-01-29T15:40:18.497Z,3.50
2023-01-29T15:43:29.944Z,3.60
2023-01-29T15:46:36.275Z,3.50
2023-01-29T15:49:42.224Z,3.50
2023-01-29T15:52:51.871Z,3.40
2023-01-29T15:55:58.297Z,3.40
2023-01-29T15:59:09.744Z,3.40
2023-01-29T16:02:40.058Z,3.40
2023-01-29T16:05:44.196Z,3.40
2023-01-29T16:08:54.211Z,3.50
2023-01-29T16:12:00.184Z,3.50
2023-01-29T16:15:07.793Z,3.50
2023-01-29T16:18:23.194Z,3.50
2023-01-29T16:21:34.583Z,3.40
2023-01-29T16:24:39.413Z,3.50
2023-01-29T16:27:46.629Z,3.50
2023-01-29T16:31:00.568Z,3.50
2023-01-29T16:34:11.742Z,3.50
2023-01-29T16:37:24.302Z,3.50
2023-01-29T16:40:34.163Z,3.50
2023-01-29T16:43:52.593Z,3.40
2023-01-29T16:46:58.997Z,3.40
2023-01-29T16:50:06.315Z,3.30
2023-01-29T16:53:15.821Z,3.40
2023-01-29T16:56:24.643Z,3.40
2023-01-29T16:59:35.155Z,3.50
2023-01-29T17:02:42.419Z,3.50
2023-01-29T17:05:47.835Z,3.50
2023-01-29T17:08:52.934Z,3.50
2023-01-29T17:12:00.607Z,3.50
2023-01-29T17:15:08.197Z,3.50
2023-01-29T17:18:20.289Z,3.40
2023-01-29T17:21:25.591Z,3.40
2023-01-29T17:24:30.395Z,3.50
2023-01-29T17:27:34.829Z,3.60
2023-01-29T17:30:40.769Z,3.60
2023-01-29T17:33:47.332Z,3.60
2023-01-29T17:36:51.646Z,3.50
2023-01-29T17:39:57.855Z,3.60
2023-01-29T17:43:02.264Z,3.60
2023-01-29T17:46:06.700Z,3.70
2023-01-29T17:49:25.301Z,3.70
2023-01-29T17:52:30.219Z,3.80
2023-01-29T17:55:38.138Z,3.90
2023-01-29T17:58:42.910Z,3.90
2023-01-29T18:01:48.457Z,3.90
2023-01-29T18:04:55.568Z,3.90
2023-01-29T18:08:00.392Z,3.90
2023-01-29T18:11:04.726Z,4.00
2023-01-29T18:14:14.081Z,3.90
2023-01-29T18:17:23.249Z,3.90
2023-01-29T18:20:30.288Z,3.90
2023-01-29T18:23:34.151Z,3.90
2023-01-29T18:26:37.990Z,3.80
2023-01-29T18:29:42.334Z,3.80
2023-01-29T18:32:48.117Z,3.70
2023-01-29T18:35:55.640Z,3.50
2023-01-29T18:39:00.551Z,3.50
2023-01-29T18:42:04.716Z,3.50
2023-01-29T18:45:10.545Z,3.60
2023-01-29T18:48:15.574Z,3.70
2023-01-29T18:51:21.005Z,3.80
2023-01-29T18:54:27.405Z,3.70
2023-01-29T18:58:26.189Z,3.80
2023-01-29T19:01:10.343Z,3.80
2023-01-29T19:04:15.107Z,3.80
2023-01-29T19:07:22.699Z,3.80
2023-01-29T19:10:26.535Z,3.80
2023-01-29T19:13:31.863Z,3.70
2023-01-29T19:16:37.185Z,3.70
2023-01-29T19:19:41.776Z,3.70
2023-01-29T19:22:49.364Z,3.70
2023-01-29T19:25:53.509Z,3.80
2023-01-29T19:28:58.586Z,3.70
2023-01-29T19:32:02.940Z,3.70
2023-01-29T19:35:09.857Z,3.60
2023-01-29T19:38:21.530Z,3.50
2023-01-29T19:41:26.938Z,3.50
2023-01-29T19:44:31.597Z,3.50
2023-01-29T19:47:40.290Z,3.50
2023-01-29T19:50:44.660Z,3.60
2023-01-29T19:53:50.903Z,3.60
2023-01-29T19:56:55.179Z,3.60
2023-01-29T19:59:59.825Z,3.70
2023-01-29T20:03:04.704Z,3.70
2023-01-29T20:06:11.883Z,3.60
2023-01-29T20:09:18.205Z,3.50
2023-01-29T20:12:23.322Z,3.50
2023-01-29T20:15:28.217Z,3.30
2023-01-29T20:18:33.471Z,3.30
2023-01-29T20:21:40.002Z,3.30
2023-01-29T20:24:49.690Z,3.20
2023-01-29T20:27:53.914Z,3.20
2023-01-29T20:31:01.669Z,3.20
2023-01-29T20:34:07.281Z,3.20
2023-01-29T20:37:12.982Z,3.10
2023-01-29T20:40:19.986Z,3.10
2023-01-29T20:43:24.189Z,3.10
2023-01-29T20:46:31.028Z,3.10
2023-01-29T20:49:35.549Z,3.00
2023-01-29T20:52:43.440Z,3.00
2023-01-29T20:55:50.526Z,2.90
2023-01-29T20:58:54.860Z,2.90
2023-01-29T21:01:59.356Z,2.80
2023-01-29T21:05:06.957Z,2.80
2023-01-29T21:08:12.580Z,2.80
2023-01-29T21:11:18.574Z,2.70
2023-01-29T21:14:23.391Z,2.70
2023-01-29T21:17:28.283Z,2.70
2023-01-29T21:20:33.415Z,2.70
2023-01-29T21:23:38.404Z,2.70
2023-01-29T21:26:44.279Z,2.60
2023-01-29T21:29:51.177Z,2.60
2023-01-29T21:32:55.827Z,2.60
2023-01-29T21:36:00.316Z,2.60
2023-01-29T21:39:16.732Z,2.60
2023-01-29T21:42:38.931Z,2.60
2023-01-29T21:45:43.244Z,2.60
2023-01-29T21:48:46.731Z,2.60
2023-01-29T21:51:50.364Z,2.50
2023-01-29T21:54:54.951Z,2.40
2023-01-29T21:58:00.716Z,2.40
2023-01-29T22:01:34.707Z,2.40
2023-01-29T22:04:27.620Z,2.40
2023-01-29T22:07:31.303Z,2.30
2023-01-29T22:10:36.512Z,2.20
2023-01-29T22:13:41.250Z,2.20
2023-01-29T22:16:44.737Z,2.10
2023-01-29T22:19:48.179Z,2.10
2023-01-29T22:22:51.346Z,2.10
2023-01-29T22:25:54.805Z,2.10
2023-01-29T22:28:59.382Z,2.10
2023-01-29T22:32:02.624Z,2.10
2023-01-29T22:35:06.612Z,2.00
2023-01-29T22:38:09.848Z,2.00
2023-01-29T22:41:13.567Z,2.00
2023-01-29T22:44:18.073Z,1.90
2023-01-29T22:47:21.303Z,1.90
2023-01-29T22:50:24.507Z,1.90
2023-01-29T22:53:27.698Z,1.90
2023-01-29T22:56:31.230Z,1.80
2023-01-29T22:59:35.838Z,1.80
2023-01-29T23:02:39.042Z,1.80
2023-01-29T23:05:42.219Z,1.80
2023-01-29T23:08:45.610Z,1.80
2023-01-29T23:11:48.945Z,1.80
2023-01-29T23:14:53.492Z,1.70
2023-01-29T23:17:56.689Z,1.70
2023-01-29T23:20:59.859Z,1.70
2023-01-29T23:24:03.124Z,1.60
2023-01-29T23:27:18.208Z,1.60
2023-01-29T23:30:22.867Z,1.60
2023-01-29T23:33:26.279Z,1.60
2023-01-29T23:36:29.599Z,1.60
2023-01-29T23:39:33.025Z,1.50
2023-01-29T23:42:36.172Z,1.40
2023-01-29T23:45:42.183Z,1.50
2023-01-29T23:48:45.437Z,1.40
2023-01-29T23:51:49.251Z,1.40
2023-01-29T23:54:52.516Z,1.40
2023-01-29T23:57:55.843Z,1.30
